Time;durP1;ratioP1;P1;durP2;ratioP2;P2;SDS_P1;SDS_P2;PMS_P1;PMS_P2;Temp;Humidity;BMP_temperature;BMP_pressure;BME280_temperature;BME280_humidity;BME280_pressure;Samples;Min_cycle;Max_cycle;Signal;HPM_P1;HPM_P2
2021/03/29 00:01:21;;;;;;;12.23;3.03;;;;;;;;;;5131603;27;20019;-54
2021/03/29 00:03:47;;;;;;;8.40;2.92;;;;;;;;;;5130238;27;20039;-53
2021/03/29 00:06:13;;;;;;;14.40;3.67;;;;;;;;;;5130529;27;20356;-53
2021/03/29 00:08:39;;;;;;;7.63;3.15;;;;;;;;;;5130862;27;20034;-51
2021/03/29 00:11:07;;;;;;;12.35;3.53;;;;;;;;;;5130206;27;20030;-49
2021/03/29 00:13:33;;;;;;;7.00;3.08;;;;;;;;;;5134284;27;20038;-51
2021/03/29 00:16:00;;;;;;;8.85;4.25;;;;;;;;;;5131396;27;20027;-50
2021/03/29 00:18:26;;;;;;;7.43;3.47;;;;;;;;;;5132098;27;20178;-52
2021/03/29 00:21:00;;;;;;;8.82;3.55;;;;;;;;;;5132602;27;20049;-52
2021/03/29 00:23:25;;;;;;;6.65;3.17;;;;;;;;;;5133901;27;20043;-51
2021/03/29 00:25:52;;;;;;;13.63;4.22;;;;;;;;;;5133520;27;20035;-52
2021/03/29 00:28:17;;;;;;;10.48;2.95;;;;;;;;;;5130244;27;20812;-51
2021/03/29 00:30:46;;;;;;;8.77;3.75;;;;;;;;;;5132513;27;20130;-49
2021/03/29 00:33:13;;;;;;;8.25;2.95;;;;;;;;;;5131878;27;20027;-52
2021/03/29 00:35:41;;;;;;;9.43;2.88;;;;;;;;;;5131266;27;20027;-51
2021/03/29 00:38:09;;;;;;;10.55;3.58;;;;;;;;;;5135568;27;20039;-49
2021/03/29 00:40:38;;;;;;;8.25;2.95;;;;;;;;;;5134247;27;20156;-53
2021/03/29 00:43:33;;;;;;;12.38;3.47;;;;;;;;;;5133634;27;20031;-52
2021/03/29 00:46:01;;;;;;;10.82;3.45;;;;;;;;;;5102202;27;20103;-51
2021/03/29 00:48:29;;;;;;;9.30;3.45;;;;;;;;;;5135601;27;20049;-50
2021/03/29 00:51:04;;;;;;;5.35;2.85;;;;;;;;;;5130581;27;20126;-54
2021/03/29 00:53:30;;;;;;;11.68;3.75;;;;;;;;;;5129666;27;20035;-48
2021/03/29 00:55:56;;;;;;;9.98;3.17;;;;;;;;;;5116322;27;20041;-47
2021/03/29 00:58:24;;;;;;;11.65;3.72;;;;;;;;;;5134284;27;20356;-49
2021/03/29 01:01:03;;;;;;;13.95;3.40;;;;;;;;;;5139625;27;20041;-52
2021/03/29 01:03:32;;;;;;;10.07;3.42;;;;;;;;;;5138241;27;20127;-48
2021/03/29 01:06:05;;;;;;;5.97;3.05;;;;;;;;;;5134380;27;20476;-49
2021/03/29 01:08:33;;;;;;;9.70;3.30;;;;;;;;;;5132561;27;20054;-49
2021/03/29 01:11:00;;;;;;;8.98;3.63;;;;;;;;;;5133109;27;20153;-50
2021/03/29 01:13:26;;;;;;;10.60;3.08;;;;;;;;;;5130061;27;20448;-49
2021/03/29 01:15:55;;;;;;;11.00;3.25;;;;;;;;;;5130107;27;20042;-50
2021/03/29 01:18:23;;;;;;;6.55;2.85;;;;;;;;;;5131996;27;20034;-50
2021/03/29 01:21:24;;;;;;;7.15;2.72;;;;;;;;;;5133304;27;20471;-53
2021/03/29 01:23:55;;;;;;;10.70;3.08;;;;;;;;;;5133700;27;20031;-52
2021/03/29 01:26:41;;;;;;;7.85;3.33;;;;;;;;;;5134736;27;20123;-51
2021/03/29 01:29:08;;;;;;;12.50;3.60;;;;;;;;;;5117954;27;20035;-50
2021/03/29 01:31:34;;;;;;;7.47;3.20;;;;;;;;;;5137382;27;20027;-50
2021/03/29 01:33:59;;;;;;;11.02;3.28;;;;;;;;;;5134025;27;20049;-52
2021/03/29 01:36:26;;;;;;;9.05;3.88;;;;;;;;;;5134425;27;20695;-54
2021/03/29 01:38:52;;;;;;;9.48;3.30;;;;;;;;;;5134629;27;20129;-48
2021/03/29 01:41:19;;;;;;;7.72;3.70;;;;;;;;;;5133420;27;20031;-47
2021/03/29 01:43:46;;;;;;;12.02;3.70;;;;;;;;;;5134238;27;20043;-49
2021/03/29 01:46:13;;;;;;;9.32;3.40;;;;;;;;;;5137084;27;20109;-51
2021/03/29 01:48:38;;;;;;;6.30;3.00;;;;;;;;;;5132194;27;20064;-50
2021/03/29 01:51:04;;;;;;;8.88;3.80;;;;;;;;;;5132294;27;20354;-52
2021/03/29 01:53:33;;;;;;;8.05;2.75;;;;;;;;;;5130106;27;20142;-51
2021/03/29 01:55:58;;;;;;;7.68;3.40;;;;;;;;;;5130171;27;20557;-53
2021/03/29 01:58:24;;;;;;;7.45;3.03;;;;;;;;;;5133959;27;20055;-49
2021/03/29 02:00:54;;;;;;;8.48;3.38;;;;;;;;;;5133447;27;20122;-52
2021/03/29 02:03:21;;;;;;;7.88;3.50;;;;;;;;;;5136160;27;20528;-49
2021/03/29 02:05:47;;;;;;;6.85;3.00;;;;;;;;;;5111200;27;20096;-47
2021/03/29 02:08:14;;;;;;;9.05;3.88;;;;;;;;;;5131861;27;20039;-50
2021/03/29 02:10:41;;;;;;;9.55;3.53;;;;;;;;;;5133249;27;20039;-50
2021/03/29 02:13:11;;;;;;;7.30;3.25;;;;;;;;;;5132377;27;20039;-49
2021/03/29 02:15:37;;;;;;;7.13;3.80;;;;;;;;;;5133542;27;20035;-52
2021/03/29 02:18:13;;;;;;;12.23;3.20;;;;;;;;;;5131407;27;20030;-48
2021/03/29 02:20:39;;;;;;;9.52;2.72;;;;;;;;;;5131481;27;20026;-49
2021/03/29 02:23:06;;;;;;;10.85;3.85;;;;;;;;;;5128345;27;20037;-50
2021/03/29 02:25:33;;;;;;;11.65;3.97;;;;;;;;;;5131947;27;20031;-51
2021/03/29 02:28:01;;;;;;;10.63;4.07;;;;;;;;;;5133472;27;20045;-51
2021/03/29 02:30:30;;;;;;;9.60;3.45;;;;;;;;;;5135853;27;20084;-50
2021/03/29 02:32:58;;;;;;;9.63;3.20;;;;;;;;;;5137824;27;20023;-47
2021/03/29 02:35:24;;;;;;;15.07;4.18;;;;;;;;;;5134587;27;20062;-53
2021/03/29 02:37:55;;;;;;;10.90;4.07;;;;;;;;;;5131987;27;20070;-51
2021/03/29 02:40:22;;;;;;;8.25;3.85;;;;;;;;;;5135089;27;20520;-47
2021/03/29 02:42:49;;;;;;;10.40;4.15;;;;;;;;;;5131140;27;20082;-48
2021/03/29 02:45:17;;;;;;;10.40;4.68;;;;;;;;;;5134700;27;20019;-48
2021/03/29 02:47:45;;;;;;;9.57;3.40;;;;;;;;;;5134017;27;20112;-48
2021/03/29 02:50:15;;;;;;;9.63;3.75;;;;;;;;;;5131224;27;20031;-48
2021/03/29 02:52:43;;;;;;;10.90;3.63;;;;;;;;;;5132611;27;20107;-49
2021/03/29 02:55:11;;;;;;;14.27;3.92;;;;;;;;;;5134854;27;20651;-52
2021/03/29 02:57:40;;;;;;;8.35;3.60;;;;;;;;;;5135299;27;20019;-49
2021/03/29 03:00:13;;;;;;;10.13;4.13;;;;;;;;;;5135897;27;20096;-51
2021/03/29 03:02:40;;;;;;;6.70;3.25;;;;;;;;;;5138798;27;20354;-49
2021/03/29 03:05:07;;;;;;;13.23;4.40;;;;;;;;;;5137108;27;20092;-51
2021/03/29 03:07:35;;;;;;;12.48;4.78;;;;;;;;;;5134887;27;20039;-49
2021/03/29 03:10:03;;;;;;;10.50;3.80;;;;;;;;;;5134579;27;20099;-48
2021/03/29 03:12:29;;;;;;;11.77;4.20;;;;;;;;;;5134876;27;20023;-47
2021/03/29 03:14:55;;;;;;;15.57;3.95;;;;;;;;;;5133947;27;20031;-48
2021/03/29 03:17:21;;;;;;;11.10;4.25;;;;;;;;;;5138315;27;20023;-50
2021/03/29 03:19:46;;;;;;;14.88;3.88;;;;;;;;;;5135121;27;20042;-49
2021/03/29 03:22:13;;;;;;;10.27;4.20;;;;;;;;;;5133674;27;20028;-51
2021/03/29 03:24:38;;;;;;;10.27;3.58;;;;;;;;;;5133397;27;20537;-49
2021/03/29 03:27:07;;;;;;;9.75;4.20;;;;;;;;;;5127345;27;20039;-50
2021/03/29 03:29:33;;;;;;;12.10;3.63;;;;;;;;;;5136810;27;20119;-49
2021/03/29 03:32:00;;;;;;;11.88;4.50;;;;;;;;;;5136862;27;20474;-52
2021/03/29 03:34:25;;;;;;;12.60;4.05;;;;;;;;;;5137861;27;20038;-48
2021/03/29 03:36:52;;;;;;;7.25;3.45;;;;;;;;;;5132967;27;20031;-51
2021/03/29 03:39:18;;;;;;;11.05;3.88;;;;;;;;;;5132598;27;20035;-48
2021/03/29 03:41:44;;;;;;;8.70;3.15;;;;;;;;;;5134708;27;20034;-49
2021/03/29 03:44:10;;;;;;;9.73;3.47;;;;;;;;;;5133332;27;20031;-50
2021/03/29 03:46:38;;;;;;;9.77;4.03;;;;;;;;;;5136270;27;20030;-51
2021/03/29 03:49:18;;;;;;;13.07;4.22;;;;;;;;;;5133443;27;20098;-52
2021/03/29 03:51:44;;;;;;;10.38;4.10;;;;;;;;;;5132652;27;20031;-50
2021/03/29 03:54:11;;;;;;;9.77;4.38;;;;;;;;;;5133427;27;20031;-49
2021/03/29 03:56:37;;;;;;;8.00;3.92;;;;;;;;;;5133024;27;20051;-50
2021/03/29 03:59:04;;;;;;;16.83;4.25;;;;;;;;;;5133744;27;20031;-48
2021/03/29 04:01:44;;;;;;;10.93;4.95;;;;;;;;;;5137256;27;20031;-53
2021/03/29 04:04:09;;;;;;;8.25;4.10;;;;;;;;;;5132989;27;20042;-51
2021/03/29 04:06:35;;;;;;;11.23;4.70;;;;;;;;;;5133725;27;20031;-49
2021/03/29 04:09:00;;;;;;;13.93;4.32;;;;;;;;;;5134068;27;20047;-51
2021/03/29 04:11:28;;;;;;;11.00;4.22;;;;;;;;;;5114815;27;20062;-52
2021/03/29 04:13:53;;;;;;;16.30;4.43;;;;;;;;;;5135809;27;20031;-49
2021/03/29 04:16:19;;;;;;;12.65;4.18;;;;;;;;;;5136871;27;20039;-53
2021/03/29 04:18:44;;;;;;;9.05;3.88;;;;;;;;;;5136241;27;20027;-51
2021/03/29 04:21:09;;;;;;;15.43;4.30;;;;;;;;;;5140312;27;20038;-50
2021/03/29 04:23:35;;;;;;;10.15;4.32;;;;;;;;;;5138801;27;20105;-49
2021/03/29 04:26:00;;;;;;;8.88;3.97;;;;;;;;;;5137261;27;20031;-49
2021/03/29 04:28:25;;;;;;;21.63;4.60;;;;;;;;;;5139052;27;20031;-51
2021/03/29 04:30:51;;;;;;;10.20;4.00;;;;;;;;;;5137701;27;20114;-49
2021/03/29 04:33:19;;;;;;;10.05;3.65;;;;;;;;;;5140122;27;20482;-53
2021/03/29 04:35:45;;;;;;;8.45;3.70;;;;;;;;;;5137207;27;20049;-51
2021/03/29 04:38:11;;;;;;;11.15;4.28;;;;;;;;;;5136253;27;20050;-49
2021/03/29 04:40:36;;;;;;;16.27;4.85;;;;;;;;;;5136776;27;20022;-50
2021/03/29 04:43:02;;;;;;;12.48;4.40;;;;;;;;;;5137942;27;20027;-50
2021/03/29 04:45:28;;;;;;;8.05;4.32;;;;;;;;;;5135894;27;20042;-48
2021/03/29 04:47:53;;;;;;;9.73;3.75;;;;;;;;;;5137071;27;20023;-48
2021/03/29 04:50:21;;;;;;;8.27;4.40;;;;;;;;;;5143203;27;20479;-51
2021/03/29 04:52:47;;;;;;;13.10;4.32;;;;;;;;;;5136343;27;20066;-48
2021/03/29 04:55:15;;;;;;;9.65;3.92;;;;;;;;;;5136384;27;20111;-53
2021/03/29 04:57:40;;;;;;;8.20;4.15;;;;;;;;;;5137629;27;20034;-52
2021/03/29 05:00:07;;;;;;;10.20;4.68;;;;;;;;;;5136712;27;20503;-51
2021/03/29 05:02:33;;;;;;;12.50;5.13;;;;;;;;;;5141173;27;20030;-48
2021/03/29 05:04:58;;;;;;;11.57;4.53;;;;;;;;;;5117764;27;20046;-48
2021/03/29 05:07:24;;;;;;;12.13;4.10;;;;;;;;;;5137295;27;20030;-50
2021/03/29 05:09:49;;;;;;;10.68;5.05;;;;;;;;;;5139793;27;20095;-49
2021/03/29 05:12:22;;;;;;;13.32;5.15;;;;;;;;;;5135133;27;20062;-51
2021/03/29 05:14:47;;;;;;;11.30;4.22;;;;;;;;;;5136514;27;20042;-49
2021/03/29 05:17:12;;;;;;;10.68;4.22;;;;;;;;;;5137485;27;20383;-51
2021/03/29 05:19:38;;;;;;;8.38;4.18;;;;;;;;;;5141373;27;20105;-49
2021/03/29 05:22:05;;;;;;;9.55;4.35;;;;;;;;;;5143431;27;20054;-54
2021/03/29 05:24:33;;;;;;;9.93;4.45;;;;;;;;;;5140582;27;20023;-54
2021/03/29 05:26:58;;;;;;;12.35;5.40;;;;;;;;;;5139552;27;20064;-50
2021/03/29 05:29:40;;;;;;;9.55;4.70;;;;;;;;;;5138897;27;20035;-50
2021/03/29 05:32:21;;;;;;;10.85;4.47;;;;;;;;;;5134879;27;20110;-52
2021/03/29 05:34:48;;;;;;;8.90;4.18;;;;;;;;;;5135774;27;20031;-50
2021/03/29 05:37:15;;;;;;;10.45;4.18;;;;;;;;;;5140048;27;20034;-50
2021/03/29 05:39:41;;;;;;;7.25;3.90;;;;;;;;;;5137918;27;20441;-50
2021/03/29 05:42:08;;;;;;;7.70;4.35;;;;;;;;;;5137009;27;20034;-52
2021/03/29 05:44:35;;;;;;;17.75;4.82;;;;;;;;;;5137341;27;20034;-49
2021/03/29 05:47:01;;;;;;;13.25;5.88;;;;;;;;;;5138951;27;20127;-51
2021/03/29 05:49:26;;;;;;;9.32;4.75;;;;;;;;;;5136945;27;20031;-49
2021/03/29 05:51:52;;;;;;;12.38;4.50;;;;;;;;;;5134042;27;20031;-49
2021/03/29 05:54:18;;;;;;;8.30;4.28;;;;;;;;;;5134014;27;20034;-48
2021/03/29 05:56:44;;;;;;;11.65;5.13;;;;;;;;;;5133476;27;20110;-49
2021/03/29 05:59:13;;;;;;;9.50;4.20;;;;;;;;;;5137961;27;20157;-50
2021/03/29 06:01:43;;;;;;;9.38;4.65;;;;;;;;;;5124494;27;20455;-50
2021/03/29 06:04:10;;;;;;;8.18;4.18;;;;;;;;;;5133936;27;20122;-51
2021/03/29 06:06:36;;;;;;;10.82;4.82;;;;;;;;;;5136655;27;20054;-49
2021/03/29 06:09:02;;;;;;;9.32;5.10;;;;;;;;;;5138512;27;20123;-50
2021/03/29 06:11:39;;;;;;;10.25;5.20;;;;;;;;;;5134708;27;20810;-52
2021/03/29 06:14:13;;;;;;;10.98;5.43;;;;;;;;;;5135395;27;20065;-49
2021/03/29 06:16:57;;;;;;;12.65;5.45;;;;;;;;;;5134313;27;20045;-48
2021/03/29 06:19:52;;;;;;;12.68;5.57;;;;;;;;;;5137337;27;20031;-54
2021/03/29 06:22:24;;;;;;;13.23;4.97;;;;;;;;;;5140358;27;20027;-50
2021/03/29 06:25:09;;;;;;;11.68;5.10;;;;;;;;;;5139317;27;20026;-50
2021/03/29 06:27:52;;;;;;;10.60;4.57;;;;;;;;;;5134354;27;20031;-54
2021/03/29 06:30:23;;;;;;;11.70;5.15;;;;;;;;;;5132056;27;20042;-50
2021/03/29 06:33:15;;;;;;;11.77;5.20;;;;;;;;;;5133687;27;20027;-51
2021/03/29 06:35:49;;;;;;;10.10;4.95;;;;;;;;;;5131604;27;20031;-48
2021/03/29 06:38:19;;;;;;;10.02;4.57;;;;;;;;;;5137329;27;20091;-49
2021/03/29 06:40:56;;;;;;;14.32;5.15;;;;;;;;;;5116069;27;20046;-50
2021/03/29 06:43:35;;;;;;;13.73;5.45;;;;;;;;;;5135614;27;20039;-52
2021/03/29 06:46:03;;;;;;;16.70;5.25;;;;;;;;;;5135656;27;20042;-49
2021/03/29 06:48:29;;;;;;;12.73;5.30;;;;;;;;;;5135935;27;20349;-50
2021/03/29 06:51:16;;;;;;;10.68;4.78;;;;;;;;;;5134401;27;20145;-51
2021/03/29 06:53:51;;;;;;;9.43;4.65;;;;;;;;;;5128576;27;20047;-51
2021/03/29 06:56:36;;;;;;;10.85;5.18;;;;;;;;;;5135072;27;20031;-52
2021/03/29 06:59:02;;;;;;;11.63;4.95;;;;;;;;;;5135085;27;20042;-52
2021/03/29 07:01:27;;;;;;;9.52;5.20;;;;;;;;;;5136183;27;20683;-50
2021/03/29 07:03:54;;;;;;;8.77;4.70;;;;;;;;;;5131756;27;20368;-51
2021/03/29 07:06:25;;;;;;;11.73;4.50;;;;;;;;;;5137445;27;20073;-50
2021/03/29 07:08:51;;;;;;;16.42;4.85;;;;;;;;;;5133315;27;20062;-52
2021/03/29 07:11:19;;;;;;;8.90;4.22;;;;;;;;;;5133564;27;20126;-52
2021/03/29 07:13:45;;;;;;;16.30;4.18;;;;;;;;;;5131447;27;20091;-52
2021/03/29 07:16:11;;;;;;;10.15;4.82;;;;;;;;;;5131154;27;20043;-50
2021/03/29 07:18:38;;;;;;;15.75;4.47;;;;;;;;;;5132672;27;20093;-48
2021/03/29 07:21:06;;;;;;;11.20;4.07;;;;;;;;;;5134761;27;20047;-50
2021/03/29 07:23:32;;;;;;;12.93;4.65;;;;;;;;;;5134956;27;20398;-49
2021/03/29 07:25:59;;;;;;;10.55;4.30;;;;;;;;;;5133572;27;20027;-51
2021/03/29 07:28:28;;;;;;;8.80;4.55;;;;;;;;;;5136255;27;20025;-51
2021/03/29 07:30:59;;;;;;;8.35;4.15;;;;;;;;;;5135385;27;20110;-50
2021/03/29 07:33:25;;;;;;;6.65;4.00;;;;;;;;;;5136603;27;20146;-50
2021/03/29 07:35:52;;;;;;;19.27;4.05;;;;;;;;;;5143750;27;20118;-48
2021/03/29 07:38:20;;;;;;;7.55;3.83;;;;;;;;;;5140397;27;20031;-48
2021/03/29 07:40:50;;;;;;;15.60;5.20;;;;;;;;;;5132262;27;20058;-53
2021/03/29 07:43:18;;;;;;;11.30;4.93;;;;;;;;;;5136197;27;20078;-48
2021/03/29 07:45:54;;;;;;;13.35;4.53;;;;;;;;;;5132944;27;20069;-49
2021/03/29 07:48:38;;;;;;;8.50;4.30;;;;;;;;;;5136155;27;20031;-49
2021/03/29 07:51:15;;;;;;;8.57;3.70;;;;;;;;;;5136083;27;20394;-48
2021/03/29 07:53:52;;;;;;;13.30;5.07;;;;;;;;;;5140260;27;20035;-48
2021/03/29 07:56:29;;;;;;;12.88;4.60;;;;;;;;;;5131198;27;20137;-52
2021/03/29 07:58:55;;;;;;;8.38;4.65;;;;;;;;;;5133925;27;20027;-49
2021/03/29 08:01:21;;;;;;;9.75;4.70;;;;;;;;;;5138276;27;20045;-51
2021/03/29 08:03:48;;;;;;;11.10;4.28;;;;;;;;;;5133204;27;20102;-52
2021/03/29 08:06:42;;;;;;;10.68;4.43;;;;;;;;;;5134211;27;20046;-51
2021/03/29 08:09:11;;;;;;;8.18;4.43;;;;;;;;;;5132426;27;20027;-52
2021/03/29 08:12:22;;;;;;;14.30;4.13;;;;;;;;;;5131865;27;20023;-49
2021/03/29 08:14:54;;;;;;;10.38;5.38;;;;;;;;;;5085369;27;20058;-52
2021/03/29 08:17:47;;;;;;;9.25;3.63;;;;;;;;;;5130980;27;20055;-52
2021/03/29 08:20:16;;;;;;;8.80;3.95;;;;;;;;;;5136855;27;20039;-54
2021/03/29 08:22:42;;;;;;;8.30;3.95;;;;;;;;;;5138588;27;20023;-52
2021/03/29 08:25:27;;;;;;;12.68;4.63;;;;;;;;;;5132513;27;20035;-49
2021/03/29 08:27:54;;;;;;;11.20;4.38;;;;;;;;;;5135732;27;20103;-53
2021/03/29 08:30:20;;;;;;;14.43;4.30;;;;;;;;;;5135808;27;20038;-53
2021/03/29 08:32:45;;;;;;;12.63;3.92;;;;;;;;;;5134695;27;20053;-50
2021/03/29 08:35:12;;;;;;;9.63;3.55;;;;;;;;;;5135105;27;20047;-53
2021/03/29 08:37:43;;;;;;;9.32;4.18;;;;;;;;;;5133344;27;20360;-50
2021/03/29 08:40:22;;;;;;;;;;;;;;;;;;5139216;27;20026;-51
2021/03/29 08:42:50;;;;;;;8.57;4.45;;;;;;;;;;5132007;27;19918;-50
2021/03/29 08:45:19;;;;;;;11.25;4.82;;;;;;;;;;5136185;27;20056;-51
2021/03/29 08:47:46;;;;;;;12.50;4.80;;;;;;;;;;5130007;27;20479;-54
2021/03/29 08:50:14;;;;;;;11.82;4.93;;;;;;;;;;5134331;27;20067;-53
2021/03/29 08:52:47;;;;;;;13.13;4.68;;;;;;;;;;5130261;27;20035;-50
2021/03/29 08:55:18;;;;;;;8.45;5.13;;;;;;;;;;5130767;27;20027;-51
2021/03/29 08:57:45;;;;;;;18.13;4.43;;;;;;;;;;5139555;27;20067;-50
2021/03/29 09:00:22;;;;;;;7.57;4.60;;;;;;;;;;5138465;27;20088;-54
2021/03/29 09:02:48;;;;;;;9.98;4.07;;;;;;;;;;5139692;27;20038;-53
2021/03/29 09:05:16;;;;;;;12.88;4.20;;;;;;;;;;5137011;27;20062;-53
2021/03/29 09:07:48;;;;;;;14.63;3.75;;;;;;;;;;5135142;27;20169;-54
2021/03/29 09:10:22;;;;;;;7.78;3.85;;;;;;;;;;5145011;27;20045;-54
2021/03/29 09:13:03;;;;;;;11.73;4.10;;;;;;;;;;5116844;27;20042;-54
2021/03/29 09:15:31;;;;;;;11.30;4.88;;;;;;;;;;5139479;27;20054;-55
2021/03/29 09:18:04;;;;;;;9.70;3.83;;;;;;;;;;5139830;27;20469;-50
2021/03/29 09:20:52;;;;;;;10.02;3.55;;;;;;;;;;5140303;27;20058;-55
2021/03/29 09:23:21;;;;;;;9.80;4.03;;;;;;;;;;5135039;27;20115;-52
2021/03/29 09:25:49;;;;;;;12.85;4.05;;;;;;;;;;5135129;27;20062;-53
2021/03/29 09:28:25;;;;;;;7.50;3.88;;;;;;;;;;5120938;27;20079;-50
2021/03/29 09:30:53;;;;;;;8.93;3.60;;;;;;;;;;5140907;27;20122;-54
2021/03/29 09:33:20;;;;;;;8.88;3.47;;;;;;;;;;5139223;27;20523;-55
2021/03/29 09:35:46;;;;;;;8.40;3.83;;;;;;;;;;5134873;27;20031;-52
2021/03/29 09:38:13;;;;;;;10.88;4.25;;;;;;;;;;5137092;27;20027;-54
2021/03/29 09:40:39;;;;;;;9.90;3.72;;;;;;;;;;5138596;27;20047;-53
2021/03/29 09:43:05;;;;;;;10.05;3.13;;;;;;;;;;5139220;27;20023;-55
2021/03/29 09:45:33;;;;;;;9.20;3.60;;;;;;;;;;5142333;27;20356;-55
2021/03/29 09:48:08;;;;;;;9.63;3.75;;;;;;;;;;5142777;27;20030;-51
2021/03/29 09:50:34;;;;;;;18.65;3.53;;;;;;;;;;5135977;27;20058;-55
2021/03/29 09:53:11;;;;;;;7.38;3.85;;;;;;;;;;5140888;27;20074;-53
2021/03/29 09:55:56;;;;;;;9.88;3.25;;;;;;;;;;5139468;27;20391;-49
2021/03/29 09:58:31;;;;;;;11.73;3.55;;;;;;;;;;5126399;27;20029;-53
2021/03/29 10:01:03;;;;;;;9.80;4.13;;;;;;;;;;5140421;27;20035;-53
2021/03/29 10:03:29;;;;;;;7.40;3.50;;;;;;;;;;5139088;27;20087;-51
2021/03/29 10:05:55;;;;;;;9.10;3.53;;;;;;;;;;5135219;27;20039;-52
2021/03/29 10:08:31;;;;;;;8.73;3.47;;;;;;;;;;5117453;27;20102;-51
2021/03/29 10:11:09;;;;;;;9.05;3.67;;;;;;;;;;5136642;27;20061;-52
2021/03/29 10:13:40;;;;;;;9.35;3.15;;;;;;;;;;5137299;27;20112;-53
2021/03/29 10:16:27;;;;;;;8.07;3.78;;;;;;;;;;5139772;27;20027;-55
2021/03/29 10:19:01;;;;;;;8.23;3.10;;;;;;;;;;5134378;27;20551;-52
2021/03/29 10:21:26;;;;;;;8.35;4.03;;;;;;;;;;5133506;27;20030;-51
2021/03/29 10:24:13;;;;;;;8.43;3.50;;;;;;;;;;5138573;27;20052;-50
2021/03/29 10:26:39;;;;;;;13.48;4.05;;;;;;;;;;5131777;27;20372;-51
2021/03/29 10:29:06;;;;;;;8.27;3.67;;;;;;;;;;5137680;27;20039;-51
2021/03/29 10:31:34;;;;;;;11.93;3.75;;;;;;;;;;5138262;27;20053;-53
2021/03/29 10:34:01;;;;;;;8.35;3.50;;;;;;;;;;5139468;27;20039;-54
2021/03/29 10:36:28;;;;;;;16.42;4.72;;;;;;;;;;5135105;27;20113;-51
2021/03/29 10:38:55;;;;;;;9.00;3.33;;;;;;;;;;5141085;27;20035;-54
2021/03/29 10:41:22;;;;;;;10.10;4.03;;;;;;;;;;5134539;27;20032;-51
2021/03/29 10:43:48;;;;;;;12.65;3.70;;;;;;;;;;5139452;27;20027;-51
2021/03/29 10:46:14;;;;;;;9.52;3.80;;;;;;;;;;5139570;27;20026;-50
2021/03/29 10:48:39;;;;;;;13.30;3.90;;;;;;;;;;5136924;27;20043;-50
2021/03/29 10:51:06;;;;;;;9.18;3.58;;;;;;;;;;5143945;27;20035;-52
2021/03/29 10:53:33;;;;;;;6.40;3.40;;;;;;;;;;5137001;27;20022;-51
2021/03/29 10:55:58;;;;;;;7.07;3.17;;;;;;;;;;5136592;27;20030;-53
2021/03/29 10:58:24;;;;;;;9.02;4.22;;;;;;;;;;5133702;27;20530;-48
2021/03/29 11:00:49;;;;;;;9.60;3.65;;;;;;;;;;5135978;27;20049;-52
2021/03/29 11:03:15;;;;;;;8.52;3.72;;;;;;;;;;5135881;27;20035;-54
2021/03/29 11:05:40;;;;;;;5.70;3.15;;;;;;;;;;5117712;27;20031;-53
2021/03/29 11:08:06;;;;;;;10.18;3.45;;;;;;;;;;5138773;27;20110;-52
2021/03/29 11:10:33;;;;;;;9.70;3.03;;;;;;;;;;5134382;27;20031;-50
2021/03/29 11:12:59;;;;;;;8.95;3.70;;;;;;;;;;5140222;27;20100;-53
2021/03/29 11:15:24;;;;;;;6.88;2.85;;;;;;;;;;5134754;27;20529;-53
2021/03/29 11:17:49;;;;;;;6.93;2.75;;;;;;;;;;5136598;27;20035;-53
2021/03/29 11:20:15;;;;;;;5.80;2.97;;;;;;;;;;5138074;27;20019;-54
2021/03/29 11:22:40;;;;;;;10.15;3.25;;;;;;;;;;5137757;27;20019;-54
2021/03/29 11:25:06;;;;;;;17.35;4.07;;;;;;;;;;5141715;27;20031;-53
2021/03/29 11:27:32;;;;;;;8.55;2.95;;;;;;;;;;5137960;27;20055;-53
2021/03/29 11:29:57;;;;;;;7.60;2.97;;;;;;;;;;5138225;27;20041;-53
2021/03/29 11:32:25;;;;;;;5.65;2.75;;;;;;;;;;5139831;27;20039;-52
2021/03/29 11:34:50;;;;;;;6.47;2.97;;;;;;;;;;5135555;27;20031;-54
2021/03/29 11:37:15;;;;;;;6.72;2.92;;;;;;;;;;5132130;27;20076;-51
2021/03/29 11:39:41;;;;;;;9.82;3.25;;;;;;;;;;5133583;27;20445;-54
2021/03/29 11:42:06;;;;;;;7.72;3.22;;;;;;;;;;5134902;27;20083;-53
2021/03/29 11:44:32;;;;;;;6.47;2.47;;;;;;;;;;5137802;27;20034;-53
2021/03/29 11:46:57;;;;;;;7.45;3.00;;;;;;;;;;5133926;27;20456;-53
2021/03/29 11:49:23;;;;;;;19.15;4.05;;;;;;;;;;5131774;27;20084;-49
2021/03/29 11:51:48;;;;;;;10.35;3.15;;;;;;;;;;5133163;27;20118;-52
2021/03/29 11:54:13;;;;;;;12.00;2.78;;;;;;;;;;5134099;27;20361;-54
2021/03/29 11:56:39;;;;;;;7.47;2.60;;;;;;;;;;5123923;27;20038;-50
2021/03/29 11:59:05;;;;;;;6.80;3.05;;;;;;;;;;5134087;27;20463;-51
2021/03/29 12:02:19;;;;;;;10.70;3.15;;;;;;;;;;5134990;27;20045;-49
2021/03/29 12:04:29;;;;;;;22.33;4.10;;;;;;;;;;5125626;27;20039;-49
2021/03/29 12:07:06;;;;;;;9.75;3.05;;;;;;;;;;5138280;27;20379;-52
2021/03/29 12:09:39;;;;;;;7.57;2.75;;;;;;;;;;5139781;27;20361;-51
2021/03/29 12:12:06;;;;;;;36.90;6.68;;;;;;;;;;5135188;27;20035;-51
2021/03/29 12:14:39;;;;;;;8.43;2.78;;;;;;;;;;5137356;27;20031;-52
2021/03/29 12:17:07;;;;;;;13.88;3.72;;;;;;;;;;5132429;27;20100;-53
2021/03/29 12:19:36;;;;;;;8.68;2.85;;;;;;;;;;5132856;27;20066;-54
2021/03/29 12:22:23;;;;;;;10.52;2.83;;;;;;;;;;5132906;27;20023;-51
2021/03/29 12:24:51;;;;;;;9.98;2.17;;;;;;;;;;5138146;27;20046;-51
2021/03/29 12:27:18;;;;;;;5.63;2.63;;;;;;;;;;5138633;27;20027;-52
2021/03/29 12:29:45;;;;;;;5.32;2.47;;;;;;;;;;5132320;27;20046;-50
2021/03/29 12:32:16;;;;;;;13.75;2.58;;;;;;;;;;5119648;27;20031;-51
2021/03/29 12:34:48;;;;;;;4.90;1.90;;;;;;;;;;5136664;27;20531;-49
2021/03/29 12:37:16;;;;;;;5.90;2.45;;;;;;;;;;5138799;27;20039;-53
2021/03/29 12:39:50;;;;;;;6.20;2.80;;;;;;;;;;5137724;27;20065;-50
2021/03/29 12:42:18;;;;;;;6.30;2.75;;;;;;;;;;5143293;27;20019;-53
2021/03/29 12:44:44;;;;;;;8.38;2.53;;;;;;;;;;5141172;27;20077;-52
2021/03/29 12:47:12;;;;;;;12.35;3.13;;;;;;;;;;5135874;27;20115;-55
2021/03/29 12:49:38;;;;;;;5.82;2.20;;;;;;;;;;5135546;27;20095;-53
2021/03/29 12:52:04;;;;;;;8.55;2.08;;;;;;;;;;5139354;27;20051;-53
2021/03/29 12:54:32;;;;;;;5.57;2.40;;;;;;;;;;5134869;27;20037;-50
2021/03/29 12:57:00;;;;;;;4.80;1.58;;;;;;;;;;5141285;27;20068;-54
2021/03/29 12:59:27;;;;;;;7.50;2.17;;;;;;;;;;5115357;27;20055;-51
2021/03/29 13:01:55;;;;;;;9.57;2.40;;;;;;;;;;5119976;27;20570;-53
2021/03/29 13:04:36;;;;;;;7.90;2.33;;;;;;;;;;5139954;27;20034;-54
2021/03/29 13:07:12;;;;;;;6.25;2.30;;;;;;;;;;5143928;27;20035;-53
2021/03/29 13:09:48;;;;;;;7.05;2.30;;;;;;;;;;5136768;27;20023;-54
2021/03/29 13:12:14;;;;;;;5.10;2.58;;;;;;;;;;5136388;27;20027;-53
2021/03/29 13:15:02;;;;;;;6.15;2.30;;;;;;;;;;5121264;27;20039;-53
2021/03/29 13:17:29;;;;;;;7.68;2.78;;;;;;;;;;5140849;27;20095;-53
2021/03/29 13:19:55;;;;;;;4.85;2.10;;;;;;;;;;5140395;27;20555;-55
2021/03/29 13:22:21;;;;;;;7.75;1.90;;;;;;;;;;5136381;27;20330;-53
2021/03/29 13:24:48;;;;;;;6.05;2.42;;;;;;;;;;5134441;27;20319;-53
2021/03/29 13:27:14;;;;;;;4.82;1.98;;;;;;;;;;5136988;27;20049;-56
2021/03/29 13:29:40;;;;;;;5.63;2.25;;;;;;;;;;5125259;27;20362;-53
2021/03/29 13:32:07;;;;;;;4.20;2.00;;;;;;;;;;5140018;27;20950;-51
2021/03/29 13:34:32;;;;;;;5.65;2.50;;;;;;;;;;5141236;27;20109;-55
2021/03/29 13:36:57;;;;;;;4.10;1.83;;;;;;;;;;5141522;27;20138;-55
2021/03/29 13:39:23;;;;;;;5.47;2.65;;;;;;;;;;5139294;27;20039;-51
2021/03/29 13:41:49;;;;;;;6.82;2.75;;;;;;;;;;5135262;27;20031;-55
2021/03/29 13:44:15;;;;;;;5.80;2.15;;;;;;;;;;5136214;27;20027;-53
2021/03/29 13:46:44;;;;;;;5.20;1.80;;;;;;;;;;5134327;27;20524;-53
2021/03/29 13:49:10;;;;;;;4.00;1.42;;;;;;;;;;5118114;27;20042;-55
2021/03/29 13:51:35;;;;;;;7.47;2.05;;;;;;;;;;5133999;27;20034;-53
2021/03/29 13:54:08;;;;;;;5.53;2.45;;;;;;;;;;5132610;27;20035;-54
2021/03/29 13:56:34;;;;;;;12.00;3.13;;;;;;;;;;5134175;27;20409;-54
2021/03/29 13:59:01;;;;;;;6.15;2.08;;;;;;;;;;5115746;27;20055;-56
2021/03/29 14:01:30;;;;;;;4.80;2.08;;;;;;;;;;5132144;27;20027;-50
2021/03/29 14:03:56;;;;;;;7.97;2.28;;;;;;;;;;5133322;27;20023;-54
2021/03/29 14:06:21;;;;;;;5.22;2.30;;;;;;;;;;5135440;27;20465;-55
2021/03/29 14:08:47;;;;;;;6.22;2.25;;;;;;;;;;5115228;27;20039;-54
2021/03/29 14:11:12;;;;;;;5.38;2.30;;;;;;;;;;5137727;27;20035;-51
2021/03/29 14:13:38;;;;;;;5.38;2.15;;;;;;;;;;5138076;27;20427;-55
2021/03/29 14:16:05;;;;;;;6.93;2.17;;;;;;;;;;5139972;27;20035;-55
2021/03/29 14:18:30;;;;;;;5.20;2.30;;;;;;;;;;5135860;27;20034;-55
2021/03/29 14:20:56;;;;;;;11.18;2.03;;;;;;;;;;5133765;27;20031;-56
2021/03/29 14:23:22;;;;;;;4.20;2.05;;;;;;;;;;5136871;27;20038;-50
2021/03/29 14:25:48;;;;;;;7.88;2.58;;;;;;;;;;5136713;27;20545;-55
2021/03/29 14:28:14;;;;;;;12.13;2.38;;;;;;;;;;5135057;27;20464;-49
2021/03/29 14:30:40;;;;;;;8.65;2.45;;;;;;;;;;5133422;27;20027;-48
2021/03/29 14:33:06;;;;;;;5.75;2.10;;;;;;;;;;5136920;27;20046;-54
2021/03/29 14:43:10;;;;;;;8.50;2.10;;;;;;;;;;5141045;27;20581;-52
2021/03/29 14:45:35;;;;;;;7.57;2.40;;;;;;;;;;5137862;27;20098;-56
2021/03/29 14:48:01;;;;;;;10.40;1.92;;;;;;;;;;5140985;27;20463;-51
2021/03/29 14:50:27;;;;;;;8.38;2.17;;;;;;;;;;5132397;27;20027;-52
2021/03/29 14:52:52;;;;;;;5.80;2.05;;;;;;;;;;5136615;27;20479;-53
2021/03/29 14:55:21;;;;;;;5.07;1.90;;;;;;;;;;5136440;27;20415;-55
2021/03/29 14:57:46;;;;;;;7.88;1.90;;;;;;;;;;5135848;27;20030;-54